createdAt,value
2023-04-28T00:00:55.102Z,7.40
2023-04-28T00:03:22.908Z,8.90
2023-04-28T00:05:54.215Z,7.95
2023-04-28T00:08:23.573Z,10.77
2023-04-28T00:10:51.286Z,13.68
2023-04-28T00:13:19.050Z,17.40
2023-04-28T00:15:46.735Z,28.05
2023-04-28T00:18:14.589Z,20.60
2023-04-28T00:20:42.432Z,19.73
2023-04-28T00:23:11.595Z,13.30
2023-04-28T00:25:40.134Z,14.27
2023-04-28T00:28:07.860Z,14.90
2023-04-28T00:30:35.631Z,14.68
2023-04-28T00:33:03.366Z,15.77
2023-04-28T00:35:31.163Z,19.48
2023-04-28T00:37:58.841Z,14.27
2023-04-28T00:40:35.077Z,17.23
2023-04-28T00:43:02.804Z,12.98
2023-04-28T00:45:30.751Z,12.52
2023-04-28T00:47:59.856Z,11.05
2023-04-28T00:50:27.892Z,10.68
2023-04-28T00:52:56.015Z,9.55
2023-04-28T00:55:25.888Z,10.93
2023-04-28T00:57:57.327Z,11.70
2023-04-28T01:00:25.061Z,11.55
2023-04-28T01:02:53.683Z,10.60
2023-04-28T01:05:21.952Z,11.10
2023-04-28T01:07:49.648Z,9.38
2023-04-28T01:10:17.401Z,10.43
2023-04-28T01:12:45.112Z,9.52
2023-04-28T01:15:18.789Z,9.07
2023-04-28T01:17:47.111Z,11.63
2023-04-28T01:20:15.090Z,8.85
2023-04-28T01:22:42.865Z,11.23
2023-04-28T01:25:11.979Z,9.85
2023-04-28T01:27:39.662Z,11.43
2023-04-28T01:30:08.882Z,10.05
2023-04-28T01:32:36.610Z,8.60
2023-04-28T01:35:04.550Z,10.90
2023-04-28T01:37:32.275Z,8.45
2023-04-28T01:40:00.026Z,9.60
2023-04-28T01:42:29.138Z,8.40
2023-04-28T01:44:56.852Z,8.27
2023-04-28T01:47:24.738Z,9.80
2023-04-28T01:49:52.545Z,8.88
2023-04-28T01:52:22.711Z,7.97
2023-04-28T01:54:50.431Z,7.63
2023-04-28T01:57:19.217Z,8.55
2023-04-28T01:59:49.799Z,7.63
2023-04-28T02:02:17.562Z,9.63
2023-04-28T02:04:45.320Z,11.30
2023-04-28T02:07:13.109Z,9.73
2023-04-28T02:09:40.889Z,8.63
2023-04-28T02:12:09.302Z,8.30
2023-04-28T02:14:36.982Z,8.05
2023-04-28T02:17:06.283Z,7.57
2023-04-28T02:19:33.949Z,11.27
2023-04-28T02:22:01.627Z,9.88
2023-04-28T02:24:29.293Z,8.65
2023-04-28T02:26:57.292Z,9.15
2023-04-28T02:29:25.290Z,9.93
2023-04-28T02:31:53.403Z,8.70
2023-04-28T02:34:22.551Z,9.18
2023-04-28T02:36:50.207Z,8.27
2023-04-28T02:39:18.050Z,7.20
2023-04-28T02:41:45.735Z,9.23
2023-04-28T02:44:13.555Z,8.13
2023-04-28T02:46:41.340Z,7.85
2023-04-28T02:49:09.085Z,11.65
2023-04-28T02:51:38.118Z,8.02
2023-04-28T02:54:05.869Z,9.00
2023-04-28T02:56:33.723Z,13.32
2023-04-28T02:59:01.408Z,9.90
2023-04-28T03:01:29.185Z,7.93
2023-04-28T03:03:57.242Z,8.00
2023-04-28T03:06:25.089Z,7.13
2023-04-28T03:08:54.230Z,9.02
2023-04-28T03:11:21.966Z,7.65
2023-04-28T03:13:49.636Z,12.93
2023-04-28T03:16:17.371Z,8.77
2023-04-28T03:18:45.090Z,10.40
2023-04-28T03:21:12.788Z,7.55
2023-04-28T03:23:40.478Z,9.85
2023-04-28T03:26:09.573Z,10.90
2023-04-28T03:28:37.333Z,8.82
2023-04-28T03:31:05.136Z,7.57
2023-04-28T03:33:32.810Z,8.70
2023-04-28T03:36:00.481Z,10.15
2023-04-28T03:38:28.199Z,10.55
2023-04-28T03:40:55.983Z,11.15
2023-04-28T03:43:25.049Z,10.10
2023-04-28T03:45:52.833Z,9.52
2023-04-28T03:48:20.564Z,9.75
2023-04-28T03:50:48.268Z,9.35
2023-04-28T03:53:16.302Z,10.05
2023-04-28T03:55:44.009Z,8.07
2023-04-28T03:58:11.919Z,10.10
2023-04-28T04:00:41.037Z,11.20
2023-04-28T04:03:08.784Z,7.47
2023-04-28T04:05:36.659Z,10.05
2023-04-28T04:08:04.560Z,8.75
2023-04-28T04:10:32.288Z,8.23
2023-04-28T04:13:00.053Z,10.13
2023-04-28T04:15:27.790Z,10.40
2023-04-28T04:17:56.961Z,9.75
2023-04-28T04:20:24.780Z,6.82
2023-04-28T04:22:52.531Z,9.52
2023-04-28T04:25:22.092Z,9.07
2023-04-28T04:27:51.082Z,9.80
2023-04-28T04:30:18.845Z,8.77
2023-04-28T04:32:46.656Z,11.55
2023-04-28T04:35:15.933Z,8.93
2023-04-28T04:37:43.916Z,9.00
2023-04-28T04:40:12.422Z,10.35
2023-04-28T04:42:40.158Z,12.73
2023-04-28T04:45:09.251Z,9.93
2023-04-28T04:47:37.098Z,9.43
2023-04-28T04:50:05.159Z,9.15
2023-04-28T04:52:34.197Z,10.02
2023-04-28T04:55:01.907Z,10.73
2023-04-28T04:57:29.634Z,10.10
2023-04-28T04:59:57.553Z,13.77
2023-04-28T05:02:25.390Z,10.77
2023-04-28T05:04:54.614Z,9.30
2023-04-28T05:07:27.636Z,9.68
2023-04-28T05:09:56.956Z,12.63
2023-04-28T05:12:24.793Z,9.38
2023-04-28T05:14:52.480Z,8.63
2023-04-28T05:17:20.188Z,9.93
2023-04-28T05:19:47.889Z,10.15
2023-04-28T05:22:15.635Z,10.20
2023-04-28T05:24:43.355Z,9.20
2023-04-28T05:27:12.466Z,9.88
2023-04-28T05:29:40.177Z,8.35
2023-04-28T05:32:07.981Z,11.23
2023-04-28T05:34:35.722Z,7.45
2023-04-28T05:37:03.404Z,10.88
2023-04-28T05:39:31.170Z,8.63
2023-04-28T05:41:59.547Z,8.90
2023-04-28T05:44:28.738Z,7.88
2023-04-28T05:46:56.536Z,11.50
2023-04-28T05:49:24.373Z,10.02
2023-04-28T05:51:52.089Z,9.15
2023-04-28T05:54:19.851Z,8.65
2023-04-28T05:56:47.686Z,8.70
2023-04-28T05:59:15.900Z,9.80
2023-04-28T06:01:45.220Z,7.78
2023-04-28T06:04:13.184Z,10.32
2023-04-28T06:06:41.453Z,13.07
2023-04-28T06:09:09.407Z,9.07
2023-04-28T06:11:37.077Z,8.55
2023-04-28T06:14:04.817Z,9.00
2023-04-28T06:16:32.706Z,9.85
2023-04-28T06:19:01.922Z,9.18
2023-04-28T06:21:29.646Z,6.70
2023-04-28T06:23:57.379Z,7.50
2023-04-28T06:26:25.584Z,7.32
2023-04-28T06:28:53.328Z,9.60
2023-04-28T06:31:21.078Z,6.10
2023-04-28T06:33:48.811Z,7.40
2023-04-28T06:36:18.210Z,6.55
2023-04-28T06:38:46.271Z,8.18
2023-04-28T06:41:14.115Z,8.27
2023-04-28T06:43:41.799Z,8.50
2023-04-28T06:46:10.858Z,6.07
2023-04-28T06:48:38.706Z,9.25
2023-04-28T06:51:06.639Z,7.72
2023-04-28T06:53:35.767Z,9.45
2023-04-28T06:56:03.782Z,8.02
2023-04-28T06:58:31.579Z,6.15
2023-04-28T07:00:59.299Z,9.15
2023-04-28T07:03:28.703Z,8.98
2023-04-28T07:05:56.703Z,10.55
2023-04-28T07:08:24.448Z,5.70
2023-04-28T07:10:53.524Z,5.45
2023-04-28T07:13:21.287Z,7.97
2023-04-28T07:15:49.025Z,6.80
2023-04-28T07:18:16.823Z,6.03
2023-04-28T07:20:44.560Z,11.93
2023-04-28T07:23:12.247Z,7.07
2023-04-28T07:25:40.834Z,6.15
2023-04-28T07:28:10.195Z,6.03
2023-04-28T07:30:37.946Z,8.65
2023-04-28T07:33:05.754Z,9.98
2023-04-28T07:35:33.584Z,8.40
2023-04-28T07:38:01.407Z,7.75
2023-04-28T07:40:29.208Z,5.97
2023-04-28T07:42:56.901Z,7.45
2023-04-28T07:45:26.181Z,6.10
2023-04-28T07:47:53.904Z,7.03
2023-04-28T07:50:21.927Z,5.80
2023-04-28T07:52:49.685Z,6.68
2023-04-28T07:55:17.487Z,7.68
2023-04-28T07:57:45.284Z,5.93
2023-04-28T08:00:14.035Z,7.88
2023-04-28T08:02:43.284Z,10.30
2023-04-28T08:05:11.382Z,7.55
2023-04-28T08:07:39.289Z,8.20
2023-04-28T08:10:09.015Z,6.40
2023-04-28T08:12:36.791Z,7.80
2023-04-28T08:15:05.009Z,6.22
2023-04-28T08:17:32.749Z,5.65
2023-04-28T08:20:01.845Z,8.10
2023-04-28T08:22:29.669Z,7.88
2023-04-28T08:24:57.421Z,8.82
2023-04-28T08:27:25.831Z,7.18
2023-04-28T08:29:53.850Z,8.55
2023-04-28T08:32:21.567Z,6.28
2023-04-28T08:34:49.288Z,7.72
2023-04-28T08:37:18.483Z,5.93
2023-04-28T08:39:46.439Z,7.90
2023-04-28T08:42:14.749Z,10.93
2023-04-28T08:44:42.548Z,6.10
2023-04-28T08:47:13.811Z,6.88
2023-04-28T08:49:42.285Z,6.65
2023-04-28T08:52:12.889Z,7.80
2023-04-28T08:54:42.152Z,8.38
2023-04-28T08:57:10.472Z,7.45
2023-04-28T08:59:41.928Z,6.22
2023-04-28T09:02:10.292Z,7.30
2023-04-28T09:04:38.418Z,5.55
2023-04-28T09:07:12.282Z,6.07
2023-04-28T09:09:40.891Z,6.13
2023-04-28T09:12:10.106Z,7.05
2023-04-28T09:14:39.012Z,6.85
2023-04-28T09:17:12.044Z,7.82
2023-04-28T09:19:42.880Z,6.57
2023-04-28T09:22:18.142Z,6.38
2023-04-28T09:24:55.237Z,8.02
2023-04-28T09:27:28.399Z,7.50
2023-04-28T09:29:56.465Z,5.20
2023-04-28T09:32:25.911Z,8.00
2023-04-28T09:34:56.958Z,7.35
2023-04-28T09:37:27.468Z,9.35
2023-04-28T09:39:56.114Z,7.32
2023-04-28T09:42:36.403Z,9.48
2023-04-28T09:45:05.953Z,8.35
2023-04-28T09:47:35.858Z,10.20
2023-04-28T09:50:06.705Z,8.00
2023-04-28T09:52:35.400Z,10.27
2023-04-28T09:55:04.679Z,7.95
2023-04-28T09:57:35.074Z,10.45
2023-04-28T10:00:06.201Z,8.43
2023-04-28T10:05:09.599Z,11.43
2023-04-28T10:07:39.176Z,8.75
2023-04-28T10:10:08.659Z,9.32
2023-04-28T10:12:39.086Z,8.70
2023-04-28T10:15:08.871Z,10.50
2023-04-28T10:17:38.271Z,8.38
2023-04-28T10:20:08.598Z,8.60
2023-04-28T10:22:53.489Z,9.15
2023-04-28T10:25:29.841Z,8.30
2023-04-28T10:28:00.589Z,8.18
2023-04-28T10:30:30.173Z,8.95
2023-04-28T10:33:27.350Z,9.00
2023-04-28T10:35:55.560Z,10.05
2023-04-28T10:38:23.368Z,8.77
2023-04-28T10:40:52.053Z,8.40
2023-04-28T10:43:42.357Z,6.32
2023-04-28T10:46:11.694Z,6.20
2023-04-28T10:48:58.211Z,6.82
2023-04-28T10:51:29.839Z,10.90
2023-04-28T10:54:25.921Z,7.75
2023-04-28T10:57:19.447Z,6.93
2023-04-28T10:59:49.035Z,7.72
2023-04-28T11:02:41.712Z,5.85
2023-04-28T11:05:21.654Z,6.43
2023-04-28T11:08:29.879Z,5.82
2023-04-28T11:11:14.017Z,6.97
2023-04-28T11:13:42.443Z,5.68
2023-04-28T11:16:11.956Z,6.55
2023-04-28T11:18:53.473Z,7.28
2023-04-28T11:21:24.044Z,8.05
2023-04-28T11:23:52.396Z,5.43
2023-04-28T11:26:21.148Z,7.13
2023-04-28T11:28:50.576Z,5.75
2023-04-28T11:31:21.761Z,5.40
2023-04-28T11:34:01.692Z,7.57
2023-04-28T11:36:33.002Z,5.70
2023-04-28T11:39:01.173Z,5.00
2023-04-28T11:41:28.878Z,10.90
2023-04-28T11:43:56.544Z,5.43
2023-04-28T11:46:26.746Z,5.55
2023-04-28T11:49:05.580Z,6.70
2023-04-28T11:51:36.221Z,8.90
2023-04-28T11:54:04.375Z,7.53
2023-04-28T11:56:32.750Z,6.47
2023-04-28T11:59:05.463Z,7.75
2023-04-28T12:01:37.403Z,8.43
2023-04-28T12:04:05.548Z,7.45
2023-04-28T12:06:33.565Z,6.10
2023-04-28T12:09:04.548Z,9.18
2023-04-28T12:11:32.337Z,6.40
2023-04-28T12:14:10.058Z,6.43
2023-04-28T12:16:44.820Z,5.40
2023-04-28T12:19:15.210Z,5.20
2023-04-28T12:21:43.565Z,4.35
2023-04-28T12:24:21.662Z,4.90
2023-04-28T12:26:50.304Z,5.38
2023-04-28T12:29:38.274Z,5.07
2023-04-28T12:32:08.921Z,6.10
2023-04-28T12:34:38.163Z,5.15
2023-04-28T12:37:06.511Z,5.40
2023-04-28T12:39:36.405Z,4.50
2023-04-28T12:42:06.290Z,4.63
2023-04-28T12:44:35.798Z,5.43
2023-04-28T12:47:05.230Z,4.85
2023-04-28T12:49:35.068Z,4.38
2023-04-28T12:52:03.270Z,4.90
2023-04-28T12:54:31.115Z,5.50
2023-04-28T12:56:58.910Z,4.60
2023-04-28T12:59:26.806Z,5.35
2023-04-28T13:01:55.476Z,5.30
2023-04-28T13:04:23.631Z,4.82
2023-04-28T13:06:54.437Z,5.20
2023-04-28T13:09:22.140Z,5.65
2023-04-28T13:11:49.920Z,5.60
2023-04-28T13:14:18.001Z,5.95
2023-04-28T13:16:46.029Z,6.22
2023-04-28T13:19:15.701Z,5.97
2023-04-28T13:21:43.421Z,7.88
2023-04-28T13:24:12.766Z,9.27
2023-04-28T13:26:40.774Z,10.65
2023-04-28T13:29:09.292Z,9.07
2023-04-28T13:31:37.054Z,9.02
2023-04-28T13:34:06.172Z,11.13
2023-04-28T13:36:34.158Z,10.38
2023-04-28T13:39:02.676Z,13.65
2023-04-28T13:41:31.883Z,12.85
2023-04-28T13:43:59.594Z,11.30
2023-04-28T13:46:28.587Z,10.27
2023-04-28T13:48:56.362Z,9.13
2023-04-28T13:51:24.088Z,8.57
2023-04-28T13:53:51.802Z,7.60
2023-04-28T13:56:19.543Z,8.57
2023-04-28T13:58:48.630Z,9.05
2023-04-28T14:01:16.734Z,9.35
2023-04-28T14:03:44.853Z,12.80
2023-04-28T14:06:13.853Z,9.95
2023-04-28T14:08:41.563Z,10.68
2023-04-28T14:11:09.442Z,10.05
2023-04-28T14:13:37.190Z,11.80
2023-04-28T14:16:07.175Z,9.98
2023-04-28T14:18:34.892Z,11.40
2023-04-28T14:21:04.009Z,11.32
2023-04-28T14:23:31.675Z,11.63
2023-04-28T14:25:59.523Z,14.73
2023-04-28T14:28:27.351Z,11.60
2023-04-28T14:30:55.644Z,12.40
2023-04-28T14:33:24.912Z,11.65
2023-04-28T14:35:52.644Z,10.38
2023-04-28T14:38:20.429Z,10.63
2023-04-28T14:40:48.138Z,11.95
2023-04-28T14:43:16.109Z,8.50
2023-04-28T14:45:44.737Z,10.30
2023-04-28T14:48:13.383Z,10.18
2023-04-28T14:50:44.532Z,11.48
2023-04-28T14:53:12.237Z,10.55
2023-04-28T14:55:39.943Z,9.25
2023-04-28T14:58:07.617Z,10.07
2023-04-28T15:00:36.464Z,9.15
2023-04-28T15:03:04.533Z,9.25
2023-04-28T15:05:32.416Z,9.00
2023-04-28T15:08:01.532Z,9.80
2023-04-28T15:10:36.747Z,9.18
2023-04-28T15:13:04.616Z,11.40
2023-04-28T15:15:32.358Z,12.38
2023-04-28T15:18:00.895Z,13.10
2023-04-28T15:20:30.524Z,12.15
2023-04-28T15:22:58.781Z,11.90
2023-04-28T15:25:27.949Z,12.63
2023-04-28T15:27:55.941Z,13.38
2023-04-28T15:30:23.799Z,13.98
2023-04-28T15:32:51.603Z,13.43
2023-04-28T15:35:19.519Z,14.98
2023-04-28T15:37:49.008Z,17.23
2023-04-28T15:40:19.189Z,13.93
2023-04-28T15:42:51.564Z,12.88
2023-04-28T15:45:20.618Z,13.80
2023-04-28T15:47:50.473Z,12.30
2023-04-28T15:50:19.723Z,11.27
2023-04-28T15:52:49.887Z,14.40
2023-04-28T15:55:19.606Z,11.90
2023-04-28T15:57:49.277Z,11.60
2023-04-28T16:00:17.450Z,12.45
2023-04-28T16:02:46.286Z,12.55
2023-04-28T16:05:14.829Z,12.90
2023-04-28T16:07:42.633Z,12.07
2023-04-28T16:10:13.582Z,10.85
2023-04-28T16:12:41.948Z,11.00
2023-04-28T16:15:13.527Z,15.93
2023-04-28T16:17:41.754Z,11.00
2023-04-28T16:20:11.326Z,11.05
2023-04-28T16:22:40.881Z,9.70
2023-04-28T16:25:09.410Z,9.80
2023-04-28T16:27:37.702Z,8.32
2023-04-28T16:30:07.347Z,9.45
2023-04-28T16:32:38.355Z,8.88
2023-04-28T16:35:11.206Z,9.13
2023-04-28T16:37:40.975Z,9.65
2023-04-28T16:40:10.101Z,10.38
2023-04-28T16:42:37.934Z,9.23
2023-04-28T16:45:06.288Z,9.57
2023-04-28T16:47:34.318Z,8.18
2023-04-28T16:50:03.773Z,9.07
2023-04-28T16:52:34.095Z,10.45
2023-04-28T16:55:01.813Z,7.95
2023-04-28T16:57:30.420Z,9.73
2023-04-28T16:59:58.157Z,9.00
2023-04-28T17:02:26.217Z,9.02
2023-04-28T17:04:54.330Z,8.60
2023-04-28T17:07:25.525Z,12.93
2023-04-28T17:09:53.790Z,8.98
2023-04-28T17:12:23.304Z,9.82
2023-04-28T17:14:52.828Z,10.25
2023-04-28T17:17:20.552Z,11.25
2023-04-28T17:19:48.424Z,12.68
2023-04-28T17:22:18.360Z,10.88
2023-04-28T17:24:47.636Z,10.25
2023-04-28T17:27:16.277Z,9.57
2023-04-28T17:29:44.253Z,9.55
2023-04-28T17:32:12.108Z,9.60
2023-04-28T17:34:39.927Z,10.63
2023-04-28T17:37:07.824Z,9.85
2023-04-28T17:39:35.553Z,11.95
2023-04-28T17:42:05.194Z,11.10
2023-04-28T17:44:32.968Z,9.30
2023-04-28T17:47:01.161Z,9.35
2023-04-28T17:49:29.038Z,9.98
2023-04-28T17:51:56.772Z,10.70
2023-04-28T17:54:24.508Z,10.13
2023-04-28T17:56:53.200Z,8.95
2023-04-28T17:59:22.339Z,10.30
2023-04-28T18:01:50.063Z,10.82
2023-04-28T18:04:17.832Z,10.55
2023-04-28T18:06:45.977Z,9.73
2023-04-28T18:09:14.311Z,10.93
2023-04-28T18:11:42.864Z,9.45
2023-04-28T18:14:10.586Z,11.48
2023-04-28T18:16:39.776Z,10.10
2023-04-28T18:19:08.299Z,9.25
2023-04-28T18:21:37.081Z,10.55
2023-04-28T18:24:04.964Z,11.02
2023-04-28T18:26:32.674Z,10.27
2023-04-28T18:29:00.450Z,10.60
2023-04-28T18:31:28.245Z,11.80
2023-04-28T18:33:57.549Z,10.25
2023-04-28T18:36:26.023Z,10.93
2023-04-28T18:38:53.769Z,9.82
2023-04-28T18:41:21.645Z,11.07
2023-04-28T18:43:49.376Z,10.63
2023-04-28T18:46:17.323Z,10.88
2023-04-28T18:48:45.049Z,11.40
2023-04-28T18:51:14.131Z,12.38
2023-04-28T18:53:41.853Z,12.32
2023-04-28T18:56:09.577Z,10.82
2023-04-28T18:58:37.694Z,11.45
2023-04-28T19:01:05.466Z,11.63
2023-04-28T19:03:33.415Z,11.77
2023-04-28T19:06:01.297Z,13.98
2023-04-28T19:08:30.409Z,11.13
2023-04-28T19:10:58.844Z,10.68
2023-04-28T19:13:26.768Z,9.38
2023-04-28T19:15:56.335Z,11.15
2023-04-28T19:18:24.076Z,9.15
2023-04-28T19:20:58.797Z,9.40
2023-04-28T19:23:26.526Z,8.27
2023-04-28T19:25:57.598Z,8.82
2023-04-28T19:28:26.325Z,6.60
2023-04-28T19:30:54.382Z,9.23
2023-04-28T19:33:23.889Z,7.03
2023-04-28T19:35:54.416Z,8.40
2023-04-28T19:38:23.214Z,6.10
2023-04-28T19:40:52.107Z,7.45
2023-04-28T19:43:21.545Z,5.93
2023-04-28T19:45:49.317Z,5.95
2023-04-28T19:48:18.520Z,6.13
2023-04-28T19:50:46.617Z,6.32
2023-04-28T19:53:14.797Z,6.43
2023-04-28T19:55:42.553Z,5.22
2023-04-28T19:58:10.792Z,6.07
2023-04-28T20:00:39.896Z,6.35
2023-04-28T20:03:08.404Z,5.90
2023-04-28T20:05:38.639Z,7.32
2023-04-28T20:08:06.572Z,6.68
2023-04-28T20:10:34.376Z,7.10
2023-04-28T20:13:02.575Z,8.02
2023-04-28T20:15:30.590Z,11.63
2023-04-28T20:17:59.741Z,8.60
2023-04-28T20:20:28.060Z,10.15
2023-04-28T20:22:55.766Z,9.20
2023-04-28T20:25:23.561Z,9.70
2023-04-28T20:27:51.398Z,13.65
2023-04-28T20:30:19.141Z,16.77
2023-04-28T20:32:46.939Z,17.60
2023-04-28T20:35:16.033Z,17.95
2023-04-28T20:37:43.807Z,18.13
2023-04-28T20:40:12.146Z,17.83
2023-04-28T20:42:40.612Z,20.15
2023-04-28T20:45:09.027Z,18.70
2023-04-28T20:47:36.854Z,23.00
2023-04-28T20:50:06.507Z,23.02
2023-04-28T20:52:35.626Z,21.27
2023-04-28T20:55:04.344Z,20.83
2023-04-28T20:57:32.045Z,22.83
2023-04-28T20:59:59.781Z,20.23
2023-04-28T21:02:27.602Z,18.88
2023-04-28T21:04:55.531Z,20.65
2023-04-28T21:07:23.243Z,24.67
2023-04-28T21:09:52.649Z,22.92
2023-04-28T21:12:20.510Z,22.60
2023-04-28T21:14:48.247Z,25.15
2023-04-28T21:17:15.973Z,20.92
2023-04-28T21:19:43.817Z,24.38
2023-04-28T21:22:11.668Z,27.45
2023-04-28T21:24:39.405Z,25.67
2023-04-28T21:27:08.744Z,23.20
2023-04-28T21:29:36.444Z,24.70
2023-04-28T21:32:04.204Z,25.55
2023-04-28T21:34:32.500Z,27.02
2023-04-28T21:37:01.179Z,28.23
2023-04-28T21:39:28.977Z,28.48
2023-04-28T21:41:56.729Z,27.00
2023-04-28T21:44:25.847Z,28.70
2023-04-28T21:46:53.507Z,26.00
2023-04-28T21:49:21.267Z,25.52
2023-04-28T21:51:48.970Z,28.70
2023-04-28T21:54:17.023Z,28.30
2023-04-28T21:56:44.740Z,26.27
2023-04-28T21:59:12.480Z,29.95
2023-04-28T22:01:41.958Z,22.42
2023-04-28T22:04:09.959Z,27.13
2023-04-28T22:06:37.896Z,23.05
2023-04-28T22:09:07.071Z,27.85
2023-04-28T22:11:34.996Z,26.60
2023-04-28T22:14:02.830Z,28.02
2023-04-28T22:16:30.569Z,24.73
2023-04-28T22:18:59.661Z,27.35
2023-04-28T22:21:28.401Z,24.00
2023-04-28T22:23:56.072Z,23.17
2023-04-28T22:26:25.861Z,23.60
2023-04-28T22:28:54.245Z,23.20
2023-04-28T22:31:22.316Z,27.95
2023-04-28T22:33:50.142Z,28.52
2023-04-28T22:36:19.739Z,26.67
2023-04-28T22:38:47.458Z,23.80
2023-04-28T22:41:15.239Z,30.33
2023-04-28T22:43:43.000Z,27.15
2023-04-28T22:46:10.791Z,27.65
2023-04-28T22:48:38.529Z,25.38
2023-04-28T22:51:07.099Z,21.65
2023-04-28T22:53:36.405Z,29.55
2023-04-28T22:56:04.136Z,26.35
2023-04-28T22:58:31.835Z,28.88
2023-04-28T23:01:01.525Z,29.48
2023-04-28T23:03:29.345Z,27.85
2023-04-28T23:05:57.180Z,32.53
2023-04-28T23:08:24.926Z,26.80
2023-04-28T23:10:56.068Z,31.70
2023-04-28T23:13:23.841Z,37.67
2023-04-28T23:15:51.656Z,36.70
2023-04-28T23:18:19.390Z,39.30
2023-04-28T23:20:48.674Z,43.85
2023-04-28T23:23:16.571Z,43.47
2023-04-28T23:25:44.537Z,38.08
2023-04-28T23:28:13.658Z,49.05
2023-04-28T23:30:41.352Z,44.95
2023-04-28T23:33:09.072Z,43.95
2023-04-28T23:35:36.825Z,43.75
2023-04-28T23:38:04.747Z,43.45
2023-04-28T23:40:32.528Z,41.42
2023-04-28T23:43:00.278Z,44.47
2023-04-28T23:45:29.391Z,45.85
2023-04-28T23:47:57.264Z,43.92
2023-04-28T23:50:25.061Z,42.13
2023-04-28T23:52:52.761Z,41.22
2023-04-28T23:55:20.825Z,39.88
2023-04-28T23:57:48.569Z,38.67
